Sumter, SC (29150)

3:18 AM EDT on August 31, 2015 (GMT -0400)
USC Sumter | | Change Station
CLOSE
Current Station
Personal Weather Station
Location: Sumter, SC
Elevation: 165 ft
Nearby Weather Stations

Elev 165 ft 33.93 °N, 80.37 °W | Updated 10 minutes ago

Overcast
Overcast
68.9 °F
Feels Like 68.9 °F
N
1.0
Wind Variable Wind from ESE
Gusts 11.0 mph

Today
High -- | Low -- °F
--% Chance of Precip.
Yesterday
High -- | Low -- °F
Precip. -- in
6:53 AM 7:48 PM
Waning Gibbous, 96% visible
Pressure 30.09 in
Visibility 5.0 miles
Clouds
Dew Point 68 °F
Humidity 98%
Rainfall Not available.
Snow Depth Not available.
UV 0.0 out of 12
Pollen 2.20 out of 12
Air Quality Not available.
Flu Activity Not available.
METAR KSMS 310655Z AUTO 35005KT 5SM -DZ 28/28 A3009 RMK AO2 LTG DSNT S
Pressure 30.09 in
Visibility 5.0 miles
Clouds
Dew Point 68 °F
Humidity 98%
Rainfall Not available.
Snow Depth Not available.
UV 0.0 out of 12
Pollen 2.20 out of 12
Air Quality Not available.
Flu Activity Not available.
METAR KSMS 310655Z AUTO 35005KT 5SM -DZ 28/28 A3009 RMK AO2 LTG DSNT S

10-Day Weather Forecast

×

Almanac

Astronomy

Aug. 31, 2015 Rise Set
Actual Time
Civil Twilight
Nautical Twilight
Astronomical Twilight
Moon
Length of Visible Light
Length of Day
Tomorrow will be .
, % of the Moon is Illuminated

Today's Extremes

State Highs State Lows

Community

WunderPhotos

Upload Photos

1,851,220 photos uploaded!

WunderBlogs® & News

Nearby

Air Quality

  Air Quality AQ Index Pollutant
Not available.

Snow Depth

Station Depth Elevation

Earthquake Activity

City Distance Mag. Time & Date
Minimum magnitude displayed is 2.5.

Coastal Water Temperatures

Place Temperature

Stations

Nearby Weather Stations

Station Location Temp. Windchill Dew Point Humidity Wind Precip. Elev Updated Type